Calumet — WDE3568 — position and weather

sailwx.info

Track history (hours):
 
Tides and Currents Weather Stations Pressure Air Temp Water Temp Dewpoint Dewpoint Depression Visibility Wind Speed Wind Dir Waves Ship Positions

Calumet

Owner: Grand River Navigation Company, Traverse City, MI. More information available from US FCC via Universal Licensing System and Coast Guard Vessel Documentation Center.

Last reported at 2017-Jan-19 02:00 UTC. Time now 2017-Jan-19 06:27 UTC.
Position N 45°36' W 045°48'.

Length 192 m; draft 6.8 m.

Type: Cargo ship. MMSI: 367132630.

Wind from 300 at 18 knots

Barometer 1015.5 mb
Air temperature 1.1 ° C
Visibility: greater than 2.2 NM

Date/timePositionNaut miles runAvg speedWind from/ knotsBaromVisibWave heightAir tempDewpointWater temp
2017-Jan-19 02:00N 45°36' W 045°48'0 0.0 300 / 181015.5 2.2 1.1
2017-Jan-19 01:00N 45°36' W 045°48'15521551.9 310 / 151015.2 2.2 1.6
2017-Jan-19 00:00N 45°42' W 082°48'0 0.0 220 / 201014.5 2.2 3.3
2017-Jan-18 23:00N 45°42' W 082°48'0 0.0 210 / 191014.5 1.6 3.3
2017-Jan-18 22:00N 45°42' W 082°48'0 0.0 200 / 211014.8 1.6 3.3
2017-Jan-18 21:00N 45°42' W 082°48'2524.6 200 / 201014.8 1.1 3.3
2017-Jan-18 20:00N 45°24' W 082°24'0 0.0 230 / 131015.9 0.5
2017-Jan-18 19:00N 45°24' W 082°24'0 0.0 260 / 141015.9 1.1
2017-Jan-18 18:00N 45°24' W 082°24'0 0.0 240 / 111015.9 0.5
2017-Jan-18 17:00N 45°24' W 082°24'15391539.2 250 / 191026.0 0.5
2017-Jan-18 16:00N 45°36' W 045°48'0 0.0 250 / 71016.5 2.2 -0.0
2017-Jan-18 15:00N 45°36' W 045°48'0 0.0 270 / 101016.9 2.2 -0.0
2017-Jan-18 14:00N 45°36' W 045°48'0 0.0 280 / 121016.9 2.2 -0.0
2017-Jan-18 13:00N 45°36' W 045°48'15521551.9 270 / 61016.9 2.2 -0.0
2017-Jan-18 12:00N 45°42' W 082°48'0 0.0 320 / 81015.2 1.1 3.3
2017-Jan-18 11:00N 45°42' W 082°48'0 0.0 330 / 31015.2 -0.0 3.3
2017-Jan-18 10:00N 45°42' W 082°48'0 0.0 340 / 61015.2 -0.5 3.3
2017-Jan-18 09:00N 45°42' W 082°48'2524.6 350 / 61015.2 -0.0 3.3
2017-Jan-18 08:00N 45°24' W 082°24'0 0.0 120 / 61014.2 -0.5
2017-Jan-18 07:00N 45°24' W 082°24'0 0.0 110 / 111014.2 -0.5
2017-Jan-18 06:00N 45°24' W 082°24'0 0.0 1014.2 -0.5
2017-Jan-18 05:00N 45°24' W 082°24'1539769.6 1014.2 -0.5
2017-Jan-18 03:00N 45°36' W 045°48'0 0.0 020 / 51014.2 5.4 -0.0
2017-Jan-18 02:00N 45°36' W 045°48'0 0.0 050 / 71013.5 5.4 -0.0
2017-Jan-18 01:00N 45°36' W 045°48'15521551.9 050 / 101014.2 2.2 -0.0
2017-Jan-18 00:00N 45°42' W 082°48'0 0.0 050 / 111013.2 -0.0 2.2
2017-Jan-17 23:00N 45°42' W 082°48'0 0.0 060 / 171013.5 -0.0 2.2
2017-Jan-17 22:00N 45°42' W 082°48'0 0.0 080 / 191013.5 -0.0 2.2
2017-Jan-17 21:00N 45°42' W 082°48'2524.6 080 / 221013.2 0.5 2.2
2017-Jan-17 20:00N 45°24' W 082°24'0 0.0 070 / 181012.5 0.5
2017-Jan-17 19:00N 45°24' W 082°24'0 0.0 060 / 221012.5 0.5
2017-Jan-17 18:00N 45°24' W 082°24'0 0.0 070 / 201014.2 -0.0
2017-Jan-17 17:00N 45°24' W 082°24'15391539.2 100 / 131026.0 0.5
2017-Jan-17 16:00N 45°36' W 045°48'0 0.0 080 / 201016.2 2.2 1.1
2017-Jan-17 15:00N 45°36' W 045°48'0 0.0 080 / 211017.6 2.2 0.5
2017-Jan-17 14:00N 45°36' W 045°48'0 0.0 080 / 201019.6 2.2 0.5
2017-Jan-17 13:00N 45°36' W 045°48'15521551.9 080 / 141019.6 2.2 0.5
2017-Jan-17 12:00N 45°42' W 082°48'0 0.0 080 / 191020.6 -0.0 2.2
2017-Jan-17 11:00N 45°42' W 082°48'0 0.0 090 / 211021.6 -0.0 2.2
2017-Jan-17 10:00N 45°42' W 082°48'0 0.0 090 / 171022.6 -0.0 2.2
2017-Jan-17 09:00N 45°42' W 082°48'2524.6 090 / 141023.3 -0.0 2.2
2017-Jan-17 08:00N 45°24' W 082°24'0 0.0 110 / 131022.6 0.5
2017-Jan-17 07:00N 45°24' W 082°24'0 0.0 100 / 131022.6 -0.0
2017-Jan-17 05:00N 45°24' W 082°24'15391539.2 080 / 101024.3 -0.0
2017-Jan-17 04:00N 45°36' W 045°48'0 0.0 070 / 21025.3 5.4 1.6
2017-Jan-17 02:00N 45°36' W 045°48'0 0.0 210 / 71025.7 1.1
2017-Jan-17 01:00N 45°36' W 045°48'15521551.9 210 / 71026.0 5.4 1.6
2017-Jan-17 00:00N 45°42' W 082°48'0 0.0 220 / 91026.0 1.1 3.3
2017-Jan-16 23:00N 45°42' W 082°48'0 0.0 220 / 111026.0 1.1 3.3
2017-Jan-16 22:00N 45°42' W 082°48'0 0.0 260 / 101026.0 1.1 3.3
2017-Jan-16 21:00N 45°42' W 082°48'2524.6 290 / 121026.0 1.6 3.3
2017-Jan-16 20:00N 45°24' W 082°24'0 0.0 250 / 141026.0 3.3
2017-Jan-16 19:00N 45°24' W 082°24'0 0.0 260 / 111026.0 7.2
2017-Jan-16 18:00N 45°24' W 082°24'1539769.6 280 / 151026.0 8.3
2017-Jan-16 16:00N 45°36' W 045°48'0 0.0 240 / 221027.7 5.4 1.1
2017-Jan-16 15:00N 45°36' W 045°48'0 0.0 260 / 171027.7 5.4 -0.0
2017-Jan-16 14:00N 45°36' W 045°48'0 0.0 250 / 171027.7 -0.5
2017-Jan-16 13:00N 45°36' W 045°48'15521551.9 240 / 151027.7 -0.5
2017-Jan-16 12:00N 45°42' W 082°48'0 0.0 260 / 171027.0 -0.5 3.3
2017-Jan-16 11:00N 45°42' W 082°48'0 0.0 250 / 201027.4 -0.0 3.3
2017-Jan-16 10:00N 45°42' W 082°48'0 0.0 250 / 171027.4 -0.5 3.3
2017-Jan-16 09:00N 45°42' W 082°48'2524.6 250 / 181027.4 -0.0 3.3
2017-Jan-16 08:00N 45°24' W 082°24'0 0.0 260 / 171027.7 -0.5
2017-Jan-16 07:00N 45°24' W 082°24'1539307.8 260 / 231027.7 -0.5
2017-Jan-16 02:00N 45°36' W 045°48'0 0.0 230 / 181028.7 5.4 -0.5
2017-Jan-16 01:00N 45°36' W 045°48'15521551.9 230 / 151032.1 5.4 -1.1
2017-Jan-16 00:00N 45°42' W 082°48'0 0.0 240 / 161029.7 -1.1 2.7
2017-Jan-15 23:00N 45°42' W 082°48'0 0.0 210 / 171030.1 -1.6 2.7
2017-Jan-15 22:00N 45°42' W 082°48'0 0.0 200 / 131030.1 -1.6 2.7
2017-Jan-15 21:00N 45°42' W 082°48'2524.6 220 / 161030.4 -1.1 2.7
2017-Jan-15 20:00N 45°24' W 082°24'0 0.0 210 / 141031.1 -0.5
2017-Jan-15 19:00N 45°24' W 082°24'0 0.0 230 / 131031.1 0.5
2017-Jan-15 18:00N 45°24' W 082°24'0 0.0 270 / 141031.4 -1.1
2017-Jan-15 17:00N 45°24' W 082°24'15391539.2 250 / 171032.1 -1.1
2017-Jan-15 16:00N 45°36' W 045°48'0 0.0 290 / 41032.8 5.4 -1.1
2017-Jan-15 15:00N 45°36' W 045°48'0 0.0 340 / 61032.8 5.4 -1.6
2017-Jan-15 14:00N 45°36' W 045°48'0 0.0 280 / 51033.1 5.4 -1.6
2017-Jan-15 13:00N 45°36' W 045°48'15521551.9 330 / 41033.1 5.4 -2.7
2017-Jan-15 12:00N 45°42' W 082°48'0 0.0 320 / 71032.8 -2.7 2.7
2017-Jan-15 11:00N 45°42' W 082°48'0 0.0 310 / 81032.5 -2.7 2.7
2017-Jan-15 10:00N 45°42' W 082°48'0 0.0 320 / 121032.5 -2.7 2.7
2017-Jan-15 09:00N 45°42' W 082°48'2524.6 320 / 111032.5 -2.7 2.7
2017-Jan-15 08:00N 45°24' W 082°24'0 0.0 320 / 131032.1 -2.7
2017-Jan-15 07:00N 45°24' W 082°24'0 0.0 310 / 151032.1 -2.7
2017-Jan-15 06:00N 45°24' W 082°24'0 0.0 310 / 201032.8 -2.7
2017-Jan-15 05:00N 45°24' W 082°24'15391539.2 300 / 201032.8 -2.7
2017-Jan-15 04:00N 45°36' W 045°48'15491549.1 300 / 221031.8 5.4 -2.7
2017-Jan-15 03:00N 45°36' W 082°42'72 4.6 330 / 231031.1 5.4 -2.2
2017-Jan-14 11:19N 45°50' W 084°23'1012.3
2017-Jan-14 10:32N 45°50' W 084°37'1010.5
2017-Jan-14 09:33N 45°50' W 084°52'1010.1
2017-Jan-14 08:33N 45°51' W 085°06'1311.7
2017-Jan-14 07:29N 45°53' W 085°24'27 0.6
2017-Jan-12 08:27N 45°43' W 086°01'1112.4
2017-Jan-12 07:33N 45°49' W 085°47'1212.3
2017-Jan-12 06:33N 45°54' W 085°30'1212.2
2017-Jan-12 05:33N 45°52' W 085°13'1212.1
2017-Jan-12 04:33N 45°51' W 084°56'1212.1
2017-Jan-12 03:33N 45°50' W 084°39'3810.7
2017-Jan-12 00:00N 45°36' W 083°48'   300 / 201009.1 -3.3
Track history (hours):
 
Tides and Currents Weather Stations Pressure Air Temp Water Temp Dewpoint Dewpoint Depression Visibility Wind Speed Wind Dir Waves Ship Positions

Calumet

Owner: Grand River Navigation Company, Traverse City, MI. More information available from US FCC via Universal Licensing System and Coast Guard Vessel Documentation Center.

Last reported at 2017-Jan-19 02:00 UTC. Time now 2017-Jan-19 06:27 UTC.
Position N 45°36' W 045°48'.

Length 192 m; draft 6.8 m.

Type: Cargo ship. MMSI: 367132630.

Wind from 300 at 18 knots

Barometer 1015.5 mb
Air temperature 1.1 ° C
Visibility: greater than 2.2 NM

Date/timePositionNaut miles runAvg speedWind from/ knotsBaromVisibWave heightAir tempDewpointWater temp
2017-Jan-19 02:00N 45°36' W 045°48'0 0.0 300 / 181015.5 2.2 1.1
2017-Jan-19 01:00N 45°36' W 045°48'15521551.9 310 / 151015.2 2.2 1.6
2017-Jan-19 00:00N 45°42' W 082°48'0 0.0 220 / 201014.5 2.2 3.3
2017-Jan-18 23:00N 45°42' W 082°48'0 0.0 210 / 191014.5 1.6 3.3
2017-Jan-18 22:00N 45°42' W 082°48'0 0.0 200 / 211014.8 1.6 3.3
2017-Jan-18 21:00N 45°42' W 082°48'2524.6 200 / 201014.8 1.1 3.3
2017-Jan-18 20:00N 45°24' W 082°24'0 0.0 230 / 131015.9 0.5
2017-Jan-18 19:00N 45°24' W 082°24'0 0.0 260 / 141015.9 1.1
2017-Jan-18 18:00N 45°24' W 082°24'0 0.0 240 / 111015.9 0.5
2017-Jan-18 17:00N 45°24' W 082°24'15391539.2 250 / 191026.0 0.5
2017-Jan-18 16:00N 45°36' W 045°48'0 0.0 250 / 71016.5 2.2 -0.0
2017-Jan-18 15:00N 45°36' W 045°48'0 0.0 270 / 101016.9 2.2 -0.0
2017-Jan-18 14:00N 45°36' W 045°48'0 0.0 280 / 121016.9 2.2 -0.0
2017-Jan-18 13:00N 45°36' W 045°48'15521551.9 270 / 61016.9 2.2 -0.0
2017-Jan-18 12:00N 45°42' W 082°48'0 0.0 320 / 81015.2 1.1 3.3
2017-Jan-18 11:00N 45°42' W 082°48'0 0.0 330 / 31015.2 -0.0 3.3
2017-Jan-18 10:00N 45°42' W 082°48'0 0.0 340 / 61015.2 -0.5 3.3
2017-Jan-18 09:00N 45°42' W 082°48'2524.6 350 / 61015.2 -0.0 3.3
2017-Jan-18 08:00N 45°24' W 082°24'0 0.0 120 / 61014.2 -0.5
2017-Jan-18 07:00N 45°24' W 082°24'0 0.0 110 / 111014.2 -0.5
2017-Jan-18 06:00N 45°24' W 082°24'0 0.0 1014.2 -0.5
2017-Jan-18 05:00N 45°24' W 082°24'1539769.6 1014.2 -0.5
2017-Jan-18 03:00N 45°36' W 045°48'0 0.0 020 / 51014.2 5.4 -0.0
2017-Jan-18 02:00N 45°36' W 045°48'0 0.0 050 / 71013.5 5.4 -0.0
2017-Jan-18 01:00N 45°36' W 045°48'15521551.9 050 / 101014.2 2.2 -0.0
2017-Jan-18 00:00N 45°42' W 082°48'0 0.0 050 / 111013.2 -0.0 2.2
2017-Jan-17 23:00N 45°42' W 082°48'0 0.0 060 / 171013.5 -0.0 2.2
2017-Jan-17 22:00N 45°42' W 082°48'0 0.0 080 / 191013.5 -0.0 2.2
2017-Jan-17 21:00N 45°42' W 082°48'2524.6 080 / 221013.2 0.5 2.2
2017-Jan-17 20:00N 45°24' W 082°24'0 0.0 070 / 181012.5 0.5
2017-Jan-17 19:00N 45°24' W 082°24'0 0.0 060 / 221012.5 0.5
2017-Jan-17 18:00N 45°24' W 082°24'0 0.0 070 / 201014.2 -0.0
2017-Jan-17 17:00N 45°24' W 082°24'15391539.2 100 / 131026.0 0.5
2017-Jan-17 16:00N 45°36' W 045°48'0 0.0 080 / 201016.2 2.2 1.1
2017-Jan-17 15:00N 45°36' W 045°48'0 0.0 080 / 211017.6 2.2 0.5
2017-Jan-17 14:00N 45°36' W 045°48'0 0.0 080 / 201019.6 2.2 0.5
2017-Jan-17 13:00N 45°36' W 045°48'15521551.9 080 / 141019.6 2.2 0.5
2017-Jan-17 12:00N 45°42' W 082°48'0 0.0 080 / 191020.6 -0.0 2.2
2017-Jan-17 11:00N 45°42' W 082°48'0 0.0 090 / 211021.6 -0.0 2.2
2017-Jan-17 10:00N 45°42' W 082°48'0 0.0 090 / 171022.6 -0.0 2.2
2017-Jan-17 09:00N 45°42' W 082°48'2524.6 090 / 141023.3 -0.0 2.2
2017-Jan-17 08:00N 45°24' W 082°24'0 0.0 110 / 131022.6 0.5
2017-Jan-17 07:00N 45°24' W 082°24'0 0.0 100 / 131022.6 -0.0
2017-Jan-17 05:00N 45°24' W 082°24'15391539.2 080 / 101024.3 -0.0
2017-Jan-17 04:00N 45°36' W 045°48'0 0.0 070 / 21025.3 5.4 1.6
2017-Jan-17 02:00N 45°36' W 045°48'0 0.0 210 / 71025.7 1.1
2017-Jan-17 01:00N 45°36' W 045°48'15521551.9 210 / 71026.0 5.4 1.6
2017-Jan-17 00:00N 45°42' W 082°48'0 0.0 220 / 91026.0 1.1 3.3
2017-Jan-16 23:00N 45°42' W 082°48'0 0.0 220 / 111026.0 1.1 3.3
2017-Jan-16 22:00N 45°42' W 082°48'0 0.0 260 / 101026.0 1.1 3.3
2017-Jan-16 21:00N 45°42' W 082°48'2524.6 290 / 121026.0 1.6 3.3
2017-Jan-16 20:00N 45°24' W 082°24'0 0.0 250 / 141026.0 3.3
2017-Jan-16 19:00N 45°24' W 082°24'0 0.0 260 / 111026.0 7.2
2017-Jan-16 18:00N 45°24' W 082°24'1539769.6 280 / 151026.0 8.3
2017-Jan-16 16:00N 45°36' W 045°48'0 0.0 240 / 221027.7 5.4 1.1
2017-Jan-16 15:00N 45°36' W 045°48'0 0.0 260 / 171027.7 5.4 -0.0
2017-Jan-16 14:00N 45°36' W 045°48'0 0.0 250 / 171027.7 -0.5
2017-Jan-16 13:00N 45°36' W 045°48'15521551.9 240 / 151027.7 -0.5
2017-Jan-16 12:00N 45°42' W 082°48'0 0.0 260 / 171027.0 -0.5 3.3
2017-Jan-16 11:00N 45°42' W 082°48'0 0.0 250 / 201027.4 -0.0 3.3
2017-Jan-16 10:00N 45°42' W 082°48'0 0.0 250 / 171027.4 -0.5 3.3
2017-Jan-16 09:00N 45°42' W 082°48'2524.6 250 / 181027.4 -0.0 3.3
2017-Jan-16 08:00N 45°24' W 082°24'0 0.0 260 / 171027.7 -0.5
2017-Jan-16 07:00N 45°24' W 082°24'1539307.8 260 / 231027.7 -0.5
2017-Jan-16 02:00N 45°36' W 045°48'0 0.0 230 / 181028.7 5.4 -0.5
2017-Jan-16 01:00N 45°36' W 045°48'15521551.9 230 / 151032.1 5.4 -1.1
2017-Jan-16 00:00N 45°42' W 082°48'0 0.0 240 / 161029.7 -1.1 2.7
2017-Jan-15 23:00N 45°42' W 082°48'0 0.0 210 / 171030.1 -1.6 2.7
2017-Jan-15 22:00N 45°42' W 082°48'0 0.0 200 / 131030.1 -1.6 2.7
2017-Jan-15 21:00N 45°42' W 082°48'2524.6 220 / 161030.4 -1.1 2.7
2017-Jan-15 20:00N 45°24' W 082°24'0 0.0 210 / 141031.1 -0.5
2017-Jan-15 19:00N 45°24' W 082°24'0 0.0 230 / 131031.1 0.5
2017-Jan-15 18:00N 45°24' W 082°24'0 0.0 270 / 141031.4 -1.1
2017-Jan-15 17:00N 45°24' W 082°24'15391539.2 250 / 171032.1 -1.1
2017-Jan-15 16:00N 45°36' W 045°48'0 0.0 290 / 41032.8 5.4 -1.1
2017-Jan-15 15:00N 45°36' W 045°48'0 0.0 340 / 61032.8 5.4 -1.6
2017-Jan-15 14:00N 45°36' W 045°48'0 0.0 280 / 51033.1 5.4 -1.6
2017-Jan-15 13:00N 45°36' W 045°48'15521551.9 330 / 41033.1 5.4 -2.7
2017-Jan-15 12:00N 45°42' W 082°48'0 0.0 320 / 71032.8 -2.7 2.7
2017-Jan-15 11:00N 45°42' W 082°48'0 0.0 310 / 81032.5 -2.7 2.7
2017-Jan-15 10:00N 45°42' W 082°48'0 0.0 320 / 121032.5 -2.7 2.7
2017-Jan-15 09:00N 45°42' W 082°48'2524.6 320 / 111032.5 -2.7 2.7
2017-Jan-15 08:00N 45°24' W 082°24'0 0.0 320 / 131032.1 -2.7
2017-Jan-15 07:00N 45°24' W 082°24'0 0.0 310 / 151032.1 -2.7
2017-Jan-15 06:00N 45°24' W 082°24'0 0.0 310 / 201032.8 -2.7
2017-Jan-15 05:00N 45°24' W 082°24'15391539.2 300 / 201032.8 -2.7
2017-Jan-15 04:00N 45°36' W 045°48'15491549.1 300 / 221031.8 5.4 -2.7
2017-Jan-15 03:00N 45°36' W 082°42'72 4.6 330 / 231031.1 5.4 -2.2
2017-Jan-14 11:19N 45°50' W 084°23'1012.3
2017-Jan-14 10:32N 45°50' W 084°37'1010.5
2017-Jan-14 09:33N 45°50' W 084°52'1010.1
2017-Jan-14 08:33N 45°51' W 085°06'1311.7
2017-Jan-14 07:29N 45°53' W 085°24'27 0.6
2017-Jan-12 08:27N 45°43' W 086°01'1112.4
2017-Jan-12 07:33N 45°49' W 085°47'1212.3
2017-Jan-12 06:33N 45°54' W 085°30'1212.2
2017-Jan-12 05:33N 45°52' W 085°13'1212.1
2017-Jan-12 04:33N 45°51' W 084°56'1212.1
2017-Jan-12 03:33N 45°50' W 084°39'3810.7
2017-Jan-12 00:00N 45°36' W 083°48'   300 / 201009.1 -3.3

Dump ship's entire track history